createdAt,value
2019-03-10T13:04:19.113Z,995.83
2019-03-10T13:05:17.965Z,995.83
2019-03-10T13:06:17.669Z,995.86
2019-03-10T13:07:17.616Z,995.83
2019-03-10T13:08:17.531Z,995.88
2019-03-10T13:09:17.488Z,996.00
2019-03-10T13:10:17.434Z,995.99
2019-03-10T13:11:17.375Z,996.05
2019-03-10T13:12:17.338Z,996.00
2019-03-10T13:13:17.253Z,995.97
2019-03-10T13:15:52.321Z,995.74
2019-03-10T13:18:03.377Z,995.65
2019-03-10T13:19:03.301Z,995.60
2019-03-10T13:20:03.183Z,995.64
2019-03-10T13:21:03.228Z,995.60
2019-03-10T13:22:03.217Z,995.63
2019-03-10T13:23:03.174Z,995.59
2019-03-10T13:24:03.142Z,995.58
2019-03-10T13:25:03.132Z,995.45
2019-03-10T13:26:03.134Z,995.46
2019-03-10T13:27:03.152Z,995.42
2019-03-10T13:28:03.126Z,995.30
2019-03-10T13:29:03.092Z,995.33
2019-03-10T13:30:03.092Z,995.35
2019-03-10T13:31:03.063Z,995.38
2019-03-10T13:32:03.083Z,995.30
2019-03-10T13:33:03.039Z,995.37
2019-03-10T13:34:03.042Z,995.31
2019-03-10T13:35:03.015Z,995.33
2019-03-10T13:36:03.021Z,995.30
2019-03-10T13:37:03.013Z,995.28
2019-03-10T13:38:02.984Z,995.27
2019-03-10T13:39:03.153Z,995.25
2019-03-10T13:40:02.966Z,995.25
2019-03-10T13:41:02.963Z,995.28
2019-03-10T13:42:02.943Z,995.25
2019-03-10T13:43:02.942Z,995.22
2019-03-10T13:44:02.946Z,995.25
2019-03-10T13:45:02.908Z,995.20
2019-03-10T13:46:02.897Z,995.16
2019-03-10T13:47:02.890Z,995.10
2019-03-10T13:48:02.931Z,995.06
2019-03-10T13:49:02.886Z,995.11
2019-03-10T13:50:02.901Z,995.04
2019-03-10T13:51:02.850Z,995.05
2019-03-10T13:52:02.858Z,995.08
2019-03-10T13:53:02.847Z,994.99
2019-03-10T13:54:02.843Z,994.98
2019-03-10T13:55:02.809Z,994.93
2019-03-10T13:56:02.812Z,994.90
2019-03-10T13:57:02.796Z,994.88
2019-03-10T13:58:02.768Z,994.83
2019-03-10T13:59:02.770Z,994.80
2019-03-10T14:00:02.778Z,994.72
2019-03-10T14:01:02.771Z,994.68
2019-03-10T14:02:02.738Z,994.68
2019-03-10T14:03:02.727Z,994.65
2019-03-10T14:04:02.717Z,994.62
2019-03-10T14:05:02.695Z,994.60
2019-03-10T14:06:02.691Z,994.55
2019-03-10T14:07:02.671Z,994.53
2019-03-10T14:08:02.675Z,994.54
2019-03-10T14:09:02.779Z,994.60
2019-03-10T14:10:02.647Z,994.67
2019-03-10T14:11:02.639Z,994.68
2019-03-10T14:12:02.683Z,994.63
2019-03-10T14:13:02.609Z,994.53
2019-03-10T14:14:02.620Z,994.53
2019-03-10T14:15:02.639Z,994.44
2019-03-10T14:16:02.609Z,994.39
2019-03-10T14:17:02.590Z,994.35
2019-03-10T14:18:02.577Z,994.23
2019-03-10T14:19:02.573Z,994.25
2019-03-10T14:20:02.532Z,994.28
2019-03-10T14:21:02.519Z,994.28
2019-03-10T14:22:02.525Z,994.25
2019-03-10T14:23:02.571Z,994.25
2019-03-10T14:24:02.488Z,994.21
2019-03-10T14:25:02.591Z,994.24
2019-03-10T14:26:02.707Z,994.26
2019-03-10T14:27:02.459Z,994.24
2019-03-10T14:28:02.445Z,994.21
2019-03-10T14:29:02.433Z,994.20
2019-03-10T14:30:02.443Z,994.11
2019-03-10T14:31:02.419Z,994.17
2019-03-10T14:32:02.412Z,994.12
2019-03-10T14:33:02.451Z,994.13
2019-03-10T14:34:02.392Z,994.07
2019-03-10T14:35:02.415Z,993.99
2019-03-10T14:36:02.362Z,993.84
2019-03-10T14:37:02.397Z,993.66
2019-03-10T14:38:02.369Z,993.54
2019-03-10T14:39:04.534Z,993.54
2019-03-10T14:40:02.607Z,993.53
2019-03-10T14:41:02.315Z,993.54
2019-03-10T14:42:02.290Z,993.62
2019-03-10T14:43:02.453Z,993.60
2019-03-10T14:44:02.614Z,993.63
2019-03-10T14:45:02.303Z,993.54
2019-03-10T14:46:02.245Z,993.40
2019-03-10T14:47:02.237Z,993.40
2019-03-10T14:48:02.391Z,993.40
2019-03-10T14:49:02.298Z,993.47
2019-03-10T14:50:02.215Z,993.38
2019-03-10T14:51:02.251Z,993.27
2019-03-10T14:52:02.192Z,993.23
2019-03-10T14:53:04.603Z,993.24
2019-03-10T14:54:02.161Z,993.24
2019-03-10T14:55:02.152Z,993.25
2019-03-10T14:56:02.581Z,993.25
2019-03-10T14:57:02.824Z,993.26
2019-03-10T14:58:03.050Z,993.26
2019-03-10T14:59:02.156Z,993.35
2019-03-10T15:00:02.161Z,993.43
2019-03-10T15:01:02.111Z,993.42
2019-03-10T15:02:02.077Z,993.46
2019-03-10T15:03:02.518Z,993.44
2019-03-10T15:04:02.077Z,993.39
2019-03-10T15:05:02.038Z,993.33
2019-03-10T15:06:02.038Z,993.34
2019-03-10T15:07:03.154Z,993.23
2019-03-10T15:08:02.033Z,993.16
2019-03-10T15:09:02.058Z,993.13
2019-03-10T15:10:02.032Z,993.19
2019-03-10T15:11:01.972Z,993.16
2019-03-10T15:12:01.993Z,993.09
2019-03-10T15:13:01.965Z,993.13
2019-03-10T15:14:01.950Z,993.00
2019-03-10T15:15:01.964Z,993.16
2019-03-10T15:16:01.932Z,993.10
2019-03-10T15:17:02.227Z,993.04
2019-03-10T15:18:03.022Z,993.05
2019-03-10T15:19:01.888Z,993.01
2019-03-10T15:20:01.919Z,992.99
2019-03-10T15:21:01.877Z,992.96
2019-03-10T15:22:10.526Z,992.97
2019-03-10T15:23:01.866Z,992.85
2019-03-10T15:24:01.840Z,992.81
2019-03-10T15:25:01.896Z,992.75
2019-03-10T15:26:01.819Z,992.76
2019-03-10T15:27:01.817Z,992.71
2019-03-10T15:28:01.884Z,992.70
2019-03-10T15:29:01.778Z,992.67
2019-03-10T15:30:01.822Z,992.68
2019-03-10T15:31:01.768Z,992.63
2019-03-10T15:32:01.754Z,992.69
2019-03-10T15:33:01.740Z,992.65
2019-03-10T15:34:01.772Z,992.64
2019-03-10T15:35:01.784Z,992.64
2019-03-10T15:36:01.724Z,992.63
2019-03-10T15:37:01.690Z,992.64
2019-03-10T15:38:01.691Z,992.67
2019-03-10T15:39:01.701Z,992.68
2019-03-10T15:40:01.715Z,992.67
2019-03-10T15:41:01.647Z,992.69
2019-03-10T15:42:01.699Z,992.74
2019-03-10T15:43:01.627Z,992.67
2019-03-10T15:44:01.609Z,992.61
2019-03-10T15:45:01.645Z,992.61
2019-03-10T15:46:01.602Z,992.58
2019-03-10T15:47:01.624Z,992.55
2019-03-10T15:48:01.571Z,992.46
2019-03-10T15:49:01.667Z,992.46
2019-03-10T15:50:01.591Z,992.45
2019-03-10T15:51:01.575Z,992.42
2019-03-10T15:52:01.639Z,992.42
2019-03-10T15:53:01.523Z,992.35
2019-03-10T15:54:01.505Z,992.32
2019-03-10T15:55:01.497Z,992.34
2019-03-10T15:56:01.483Z,992.29
2019-03-10T15:57:01.511Z,992.24
2019-03-10T15:58:03.916Z,992.27
2019-03-10T15:59:01.453Z,992.28
2019-03-10T16:00:01.446Z,992.26
2019-03-10T16:01:03.839Z,992.28
2019-03-10T16:02:01.412Z,992.29
2019-03-10T16:03:01.428Z,992.26
2019-03-10T16:04:01.436Z,992.24
2019-03-10T16:05:01.409Z,992.28
2019-03-10T16:06:01.435Z,992.28
2019-03-10T16:07:01.361Z,992.19
2019-03-10T16:08:01.379Z,992.09
2019-03-10T16:09:01.331Z,992.12
2019-03-10T16:10:01.538Z,992.12
2019-03-10T16:11:01.355Z,992.14
2019-03-10T16:12:01.327Z,992.21
2019-03-10T16:13:01.317Z,992.17
2019-03-10T16:14:01.288Z,992.15
2019-03-10T16:15:01.288Z,992.16
2019-03-10T16:16:01.332Z,992.24
2019-03-10T16:17:01.291Z,992.23
2019-03-10T16:18:01.306Z,992.28
2019-03-10T16:19:01.319Z,992.33
2019-03-10T16:20:01.233Z,992.30
2019-03-10T16:21:01.264Z,992.29
2019-03-10T16:22:01.202Z,992.33
2019-03-10T16:23:01.200Z,992.27
2019-03-10T16:24:01.201Z,992.30
2019-03-10T16:25:01.173Z,992.20
2019-03-10T16:26:01.227Z,992.18
2019-03-10T16:27:01.164Z,992.23
2019-03-10T16:28:01.182Z,992.17
2019-03-10T16:29:01.150Z,992.15
2019-03-10T16:30:01.163Z,992.19
2019-03-10T16:31:01.169Z,992.20
2019-03-10T16:32:01.126Z,992.14
2019-03-10T16:33:01.112Z,992.17
2019-03-10T16:34:01.073Z,992.15
2019-03-10T16:35:01.140Z,992.22
2019-03-10T16:36:01.063Z,992.22
2019-03-10T16:37:01.071Z,992.19
2019-03-10T16:38:01.037Z,992.15
2019-03-10T16:39:01.028Z,992.12
2019-03-10T16:40:01.091Z,992.17
2019-03-10T16:41:00.999Z,992.12
2019-03-10T16:42:00.994Z,992.10
2019-03-10T16:43:01.024Z,992.17
2019-03-10T16:44:00.963Z,992.19
2019-03-10T16:45:00.958Z,992.19
2019-03-10T16:46:00.950Z,992.16
2019-03-10T16:47:00.940Z,992.25
2019-03-10T16:48:01.016Z,992.26
2019-03-10T16:49:00.910Z,992.34
2019-03-10T16:50:00.906Z,992.30
2019-03-10T16:51:00.934Z,992.28
2019-03-10T16:52:00.878Z,992.24
2019-03-10T16:53:00.870Z,992.20
2019-03-10T16:54:00.875Z,992.21
2019-03-10T16:55:00.864Z,992.25
2019-03-10T16:56:03.154Z,992.32
2019-03-10T16:57:00.839Z,992.36
2019-03-10T16:58:00.821Z,992.36
2019-03-10T16:59:00.820Z,992.39
2019-03-10T17:00:00.886Z,992.42
2019-03-10T17:01:00.789Z,992.40
2019-03-10T17:02:01.140Z,992.40
2019-03-10T17:03:00.790Z,992.33
2019-03-10T17:04:00.755Z,992.33
2019-03-10T17:05:00.829Z,992.33
2019-03-10T17:06:00.817Z,992.32
2019-03-10T17:07:00.750Z,992.31
2019-03-10T17:08:00.775Z,992.27
2019-03-10T17:09:00.701Z,992.25
2019-03-10T17:10:00.701Z,992.16
2019-03-10T17:11:00.706Z,992.13
2019-03-10T17:12:00.665Z,992.06
2019-03-10T17:13:00.695Z,991.93
2019-03-10T17:14:00.657Z,991.88
2019-03-10T17:15:00.638Z,991.86
2019-03-10T17:16:00.629Z,991.86
2019-03-10T17:17:00.633Z,991.87
2019-03-10T17:18:00.684Z,991.87
2019-03-10T17:19:00.650Z,991.81
2019-03-10T17:20:00.579Z,991.84
2019-03-10T17:21:00.597Z,991.76
2019-03-10T17:22:00.573Z,991.78
2019-03-10T17:23:00.645Z,991.79
2019-03-10T17:24:00.548Z,991.73
2019-03-10T17:25:00.546Z,991.79
2019-03-10T17:26:00.513Z,991.71
2019-03-10T17:27:00.503Z,991.74
2019-03-10T17:28:00.573Z,991.68
2019-03-10T17:29:00.524Z,991.68
2019-03-10T17:30:00.523Z,991.74
2019-03-10T17:31:00.469Z,991.67
2019-03-10T17:32:00.470Z,991.74
2019-03-10T17:33:00.501Z,991.86
2019-03-10T17:34:00.471Z,991.85
2019-03-10T17:35:00.499Z,991.91
2019-03-10T17:36:00.418Z,991.92
2019-03-10T17:37:00.405Z,991.93
2019-03-10T17:38:00.434Z,991.95
2019-03-10T17:39:00.505Z,991.95
2019-03-10T17:40:00.397Z,992.02
2019-03-10T17:41:00.364Z,992.05
2019-03-10T17:42:00.349Z,992.03
2019-03-10T17:43:00.350Z,992.01
2019-03-10T17:44:00.381Z,992.04
2019-03-10T17:45:00.368Z,992.08
2019-03-10T17:46:00.324Z,992.04
2019-03-10T17:47:00.306Z,991.99
2019-03-10T17:48:00.306Z,992.03
2019-03-10T17:49:00.269Z,992.01
2019-03-10T17:50:00.467Z,992.19
2019-03-10T17:51:00.262Z,992.17
2019-03-10T17:52:00.270Z,992.27
2019-03-10T17:53:00.258Z,992.24
2019-03-10T17:54:00.278Z,992.24
2019-03-10T17:55:00.360Z,992.21
2019-03-10T17:56:00.227Z,992.16
2019-03-10T17:57:00.703Z,992.21
2019-03-10T17:58:00.176Z,992.18
2019-03-10T17:59:00.219Z,992.27
2019-03-10T18:00:00.313Z,992.20
2019-03-10T18:01:00.151Z,992.23
2019-03-10T18:02:08.493Z,992.28
2019-03-10T18:03:01.128Z,992.25
2019-03-10T18:04:00.310Z,992.32
2019-03-10T18:05:00.346Z,992.32
2019-03-10T18:06:00.137Z,992.37
2019-03-10T18:07:00.124Z,992.42
2019-03-10T18:08:00.178Z,992.41
2019-03-10T18:09:00.147Z,992.49
2019-03-10T18:10:00.353Z,992.45
2019-03-10T18:11:00.037Z,992.44
2019-03-10T18:12:00.021Z,992.46
2019-03-10T18:13:00.077Z,992.53
2019-03-10T18:14:00.026Z,992.50
2019-03-10T18:15:08.234Z,992.53
2019-03-10T18:16:01.006Z,992.52
2019-03-10T18:16:59.972Z,992.63
2019-03-10T18:18:00.126Z,992.59
2019-03-10T18:18:59.964Z,992.59
2019-03-10T18:19:59.964Z,992.60
2019-03-10T18:20:59.935Z,992.69
2019-03-10T18:21:59.917Z,992.63
2019-03-10T18:22:59.914Z,992.67
2019-03-10T18:23:59.911Z,992.64
2019-03-10T18:24:59.923Z,992.72
2019-03-10T18:25:59.889Z,992.74
2019-03-10T18:26:59.863Z,992.75
2019-03-10T18:27:59.858Z,992.74
2019-03-10T18:28:59.875Z,992.76
2019-03-10T18:29:59.879Z,992.81
2019-03-10T18:30:59.882Z,992.88
2019-03-10T18:32:01.995Z,992.81
2019-03-10T18:32:59.845Z,992.87
2019-03-10T18:33:59.805Z,992.91
2019-03-10T18:34:59.789Z,992.87
2019-03-10T18:35:59.798Z,992.93
2019-03-10T18:36:59.757Z,992.94
2019-03-10T18:37:59.754Z,993.02
2019-03-10T18:38:59.733Z,993.02
2019-03-10T18:39:59.755Z,993.06
2019-03-10T18:40:59.713Z,993.10
2019-03-10T18:41:59.767Z,993.15
2019-03-10T18:42:59.695Z,993.12
2019-03-10T18:43:59.700Z,993.02
2019-03-10T18:44:59.666Z,993.06
2019-03-10T18:45:59.719Z,993.07
2019-03-10T18:46:59.685Z,993.03
2019-03-10T18:47:59.637Z,993.02
2019-03-10T18:48:59.638Z,993.03
2019-03-10T18:49:59.622Z,993.05
2019-03-10T18:50:59.696Z,993.06
2019-03-10T18:51:59.618Z,993.05
2019-03-10T18:52:59.616Z,993.06
2019-03-10T18:53:59.573Z,993.08
2019-03-10T18:54:59.586Z,993.08
2019-03-10T18:55:59.553Z,993.15
2019-03-10T18:56:59.542Z,993.10
2019-03-10T18:57:59.575Z,993.17
2019-03-10T18:58:59.522Z,993.20
2019-03-10T18:59:59.510Z,993.17
2019-03-10T19:00:59.526Z,993.22
2019-03-10T19:01:59.484Z,993.28
2019-03-10T19:02:59.525Z,993.32
2019-03-10T19:03:59.522Z,993.30
2019-03-10T19:04:59.461Z,993.37
2019-03-10T19:05:59.445Z,993.35
2019-03-10T19:06:59.443Z,993.35
2019-03-10T19:07:59.434Z,993.33
2019-03-10T19:08:59.525Z,993.41
2019-03-10T19:09:59.429Z,993.39
2019-03-10T19:10:59.396Z,993.41
2019-03-10T19:11:59.389Z,993.45
2019-03-10T19:12:59.377Z,993.48
2019-03-10T19:13:59.397Z,993.51
2019-03-10T19:14:59.358Z,993.56
2019-03-10T19:15:59.392Z,993.53
2019-03-10T19:16:59.337Z,993.55
2019-03-10T19:17:59.414Z,993.62
2019-03-10T19:18:59.355Z,993.55
2019-03-10T19:19:59.344Z,993.59
2019-03-10T19:20:59.292Z,993.52
2019-03-10T19:21:59.273Z,993.57
2019-03-10T19:22:59.269Z,993.58
2019-03-10T19:23:59.330Z,993.53
2019-03-10T19:24:59.242Z,993.70
2019-03-10T19:25:59.301Z,993.69
2019-03-10T19:26:59.251Z,993.76
2019-03-10T19:27:59.210Z,993.81
2019-03-10T19:28:59.267Z,993.76
2019-03-10T19:29:59.221Z,993.80
2019-03-10T19:30:59.225Z,993.83
2019-03-10T19:31:59.168Z,993.80
2019-03-10T19:32:59.186Z,993.86
2019-03-10T19:33:59.187Z,993.86
2019-03-10T19:34:59.150Z,993.96
2019-03-10T19:35:59.151Z,994.02
2019-03-10T19:36:59.113Z,994.06
2019-03-10T19:37:59.148Z,994.14
2019-03-10T19:38:59.143Z,994.14
2019-03-10T19:39:59.103Z,994.15
2019-03-10T19:40:59.088Z,994.23
2019-03-10T19:41:59.074Z,994.26
2019-03-10T19:42:59.100Z,994.33
2019-03-10T19:43:59.107Z,994.32
2019-03-10T19:44:59.026Z,994.39
2019-03-10T19:45:59.074Z,994.37
2019-03-10T19:46:59.023Z,994.41
2019-03-10T19:48:06.540Z,994.55
2019-03-10T19:48:59.035Z,994.47
2019-03-10T19:49:58.973Z,994.57
2019-03-10T19:50:59.001Z,994.54
2019-03-10T19:51:58.996Z,994.58
2019-03-10T19:52:58.957Z,994.68
2019-03-10T19:53:59.013Z,994.68
2019-03-10T19:54:58.961Z,994.71
2019-03-10T19:55:58.987Z,994.74
2019-03-10T19:56:58.919Z,994.85
2019-03-10T19:57:58.909Z,994.88
2019-03-10T19:58:58.890Z,994.80
2019-03-10T19:59:58.914Z,994.94
2019-03-10T20:00:58.883Z,995.03
2019-03-10T20:01:58.979Z,995.04
2019-03-10T20:02:58.884Z,995.07
2019-03-10T20:03:58.831Z,995.10
2019-03-10T20:04:58.813Z,995.16
2019-03-10T20:05:58.809Z,995.19
2019-03-10T20:06:58.814Z,995.26
2019-03-10T20:07:58.825Z,995.33
2019-03-10T20:09:01.234Z,995.37
2019-03-10T20:09:58.769Z,995.32
2019-03-10T20:10:58.775Z,995.43
2019-03-10T20:11:58.779Z,995.46
2019-03-10T20:12:58.789Z,995.56
2019-03-10T20:13:58.721Z,995.54
2019-03-10T20:14:58.722Z,995.62
2019-03-10T20:15:58.693Z,995.65
2019-03-10T20:16:58.713Z,995.63
2019-03-10T20:17:58.714Z,995.70
2019-03-10T20:18:58.749Z,995.75
2019-03-10T20:19:58.683Z,995.77
2019-03-10T20:20:58.646Z,995.80
2019-03-10T20:21:58.643Z,995.86
2019-03-10T20:23:01.045Z,995.89
2019-03-10T20:23:58.612Z,995.91
2019-03-10T20:24:58.601Z,995.97
2019-03-10T20:25:58.626Z,996.03
2019-03-10T20:26:58.617Z,996.00
2019-03-10T20:27:58.587Z,996.07
2019-03-10T20:28:58.586Z,996.13
2019-03-10T20:29:58.554Z,996.19
2019-03-10T20:30:58.592Z,996.27
2019-03-10T20:31:58.524Z,996.36
2019-03-10T20:32:58.516Z,996.37
2019-03-10T20:33:58.512Z,996.40
2019-03-10T20:34:58.489Z,996.45
2019-03-10T20:35:58.518Z,996.45
2019-03-10T20:36:58.475Z,996.63
2019-03-10T20:37:58.470Z,996.60
2019-03-10T20:38:58.465Z,996.72
2019-03-10T20:39:58.435Z,996.74
2019-03-10T20:40:58.473Z,996.77
2019-03-10T20:42:05.276Z,996.84
2019-03-10T20:42:59.419Z,996.87
2019-03-10T20:43:58.394Z,996.93
2019-03-10T20:44:58.416Z,996.96
2019-03-10T20:45:58.396Z,997.05
2019-03-10T20:46:58.382Z,997.10
2019-03-10T20:47:58.533Z,997.13
2019-03-10T20:48:58.361Z,997.17
2019-03-10T20:49:58.434Z,997.15
2019-03-10T20:50:58.385Z,997.30
2019-03-10T20:51:58.373Z,997.33
2019-03-10T20:52:58.312Z,997.22
2019-03-10T20:53:58.314Z,997.34
2019-03-10T20:54:58.299Z,997.31
2019-03-10T20:55:58.296Z,997.36
2019-03-10T20:56:58.268Z,997.43
2019-03-10T20:57:58.248Z,997.41
2019-03-10T20:58:58.260Z,997.56
2019-03-10T21:00:00.863Z,997.58
2019-03-10T21:00:58.261Z,997.56
2019-03-10T21:01:58.211Z,997.70
2019-03-10T21:02:58.190Z,997.76
2019-03-10T21:03:58.184Z,997.72
2019-03-10T21:04:58.249Z,997.80
2019-03-10T21:05:58.544Z,997.81
2019-03-10T21:06:58.184Z,997.88
2019-03-10T21:07:58.288Z,997.95
2019-03-10T21:08:58.278Z,997.97
2019-03-10T21:09:58.150Z,997.97
2019-03-10T21:10:58.147Z,997.98
2019-03-10T21:11:58.147Z,997.89
2019-03-10T21:12:58.115Z,998.00
2019-03-10T21:13:58.120Z,997.94
2019-03-10T21:14:58.071Z,998.04
2019-03-10T21:15:58.096Z,998.05
2019-03-10T21:16:58.040Z,998.17
2019-03-10T21:17:58.032Z,998.21
2019-03-10T21:18:58.087Z,998.30
2019-03-10T21:19:58.456Z,998.32
2019-03-10T21:20:58.015Z,998.39
2019-03-10T21:21:57.998Z,998.37
2019-03-10T21:22:58.035Z,998.45
2019-03-10T21:23:57.982Z,998.46
2019-03-10T21:24:57.961Z,998.47
2019-03-10T21:25:57.946Z,998.49
2019-03-10T21:26:57.943Z,998.54
2019-03-10T21:27:58.088Z,998.48
2019-03-10T21:28:58.020Z,998.66
2019-03-10T21:29:57.901Z,998.65
2019-03-10T21:30:57.949Z,998.62
2019-03-10T21:31:57.887Z,998.64
2019-03-10T21:32:57.878Z,998.76
2019-03-10T21:33:57.855Z,998.74
2019-03-10T21:34:57.877Z,998.80
2019-03-10T21:35:57.859Z,998.85
2019-03-10T21:36:57.883Z,998.88
2019-03-10T21:37:57.833Z,998.84
2019-03-10T21:38:58.514Z,998.88
2019-03-10T21:39:58.065Z,998.94
2019-03-10T21:40:57.783Z,999.14
2019-03-10T21:41:57.775Z,999.12
2019-03-10T21:42:57.839Z,999.12
2019-03-10T21:43:57.863Z,999.12
2019-03-10T21:44:57.807Z,999.22
2019-03-10T21:45:57.728Z,999.08
2019-03-10T21:46:57.743Z,999.23
2019-03-10T21:47:57.791Z,999.33
2019-03-10T21:48:57.728Z,999.33
2019-03-10T21:49:57.690Z,999.36
2019-03-10T21:50:57.686Z,999.44
2019-03-10T21:51:57.677Z,999.41
2019-03-10T21:52:57.702Z,999.47
2019-03-10T21:53:57.656Z,999.38
2019-03-10T21:54:57.661Z,999.45
2019-03-10T21:55:57.651Z,999.56
2019-03-10T21:56:57.610Z,999.63
2019-03-10T21:57:57.657Z,999.73
2019-03-10T21:58:57.615Z,999.64
2019-03-10T21:59:57.610Z,999.63
2019-03-10T22:00:57.578Z,999.74
2019-03-10T22:01:57.584Z,999.84
2019-03-10T22:02:57.594Z,999.79
2019-03-10T22:03:57.534Z,999.82
2019-03-10T22:04:57.526Z,999.86
2019-03-10T22:05:57.526Z,999.81
2019-03-10T22:06:57.572Z,999.92
2019-03-10T22:07:57.526Z,999.90
2019-03-10T22:09:06.555Z,999.94
2019-03-10T22:09:57.474Z,999.91
2019-03-10T22:10:57.520Z,1000.00
2019-03-10T22:11:57.455Z,1000.04
2019-03-10T22:12:57.478Z,1000.01
2019-03-10T22:13:57.500Z,1000.02
2019-03-10T22:14:57.478Z,1000.11
2019-03-10T22:15:57.421Z,1000.14
2019-03-10T22:16:57.404Z,1000.31
2019-03-10T22:17:57.403Z,1000.15
2019-03-10T22:18:57.432Z,1000.33
2019-03-10T22:19:57.416Z,1000.22
2019-03-10T22:20:57.359Z,1000.23
2019-03-10T22:21:57.385Z,1000.37
2019-03-10T22:22:57.370Z,1000.31
2019-03-10T22:23:59.469Z,1000.44
2019-03-10T22:24:57.354Z,1000.35
2019-03-10T22:25:57.300Z,1000.44
2019-03-10T22:26:57.316Z,1000.41
2019-03-10T22:27:57.279Z,1000.45
2019-03-10T22:28:57.289Z,1000.49
2019-03-10T22:29:57.932Z,1000.52
2019-03-10T22:30:57.249Z,1000.53
2019-03-10T22:31:57.240Z,1000.55
2019-03-10T22:32:57.271Z,1000.56
2019-03-10T22:33:57.258Z,1000.66
2019-03-10T22:34:57.281Z,1000.64
2019-03-10T22:35:57.235Z,1000.58
2019-03-10T22:36:57.196Z,1000.64
2019-03-10T22:37:57.186Z,1000.63
2019-03-10T22:38:57.199Z,1000.70
2019-03-10T22:39:57.184Z,1000.67
2019-03-10T22:40:57.153Z,1000.84
2019-03-10T22:41:57.141Z,1000.79
2019-03-10T22:42:57.151Z,1000.80
2019-03-10T22:43:57.113Z,1000.82
2019-03-10T22:44:57.148Z,1000.94
2019-03-10T22:45:57.141Z,1000.92
2019-03-10T22:46:57.110Z,1001.04
2019-03-10T22:47:57.108Z,1001.05
2019-03-10T22:48:57.069Z,1001.02
2019-03-10T22:49:57.064Z,1001.15
2019-03-10T22:50:57.030Z,1001.01
2019-03-10T22:51:57.073Z,1001.13
2019-03-10T22:52:57.027Z,1001.12
2019-03-10T22:53:57.041Z,1001.17
2019-03-10T22:54:57.021Z,1001.14
2019-03-10T22:55:56.991Z,1001.14
2019-03-10T22:56:56.987Z,1001.25
2019-03-10T22:57:56.957Z,1001.28
2019-03-10T22:58:56.956Z,1001.41
2019-03-10T22:59:56.984Z,1001.24
2019-03-10T23:00:56.953Z,1001.29
2019-03-10T23:01:56.917Z,1001.37
2019-03-10T23:02:56.945Z,1001.43
2019-03-10T23:03:56.960Z,1001.47
2019-03-10T23:04:56.891Z,1001.46
2019-03-10T23:05:57.031Z,1001.49
2019-03-10T23:06:56.876Z,1001.40
2019-03-10T23:07:56.907Z,1001.49
2019-03-10T23:08:56.869Z,1001.48
2019-03-10T23:09:56.856Z,1001.54
2019-03-10T23:10:56.836Z,1001.57
2019-03-10T23:11:56.821Z,1001.56
2019-03-10T23:12:56.799Z,1001.65
2019-03-10T23:13:56.829Z,1001.75
2019-03-10T23:14:56.776Z,1001.71
2019-03-10T23:15:56.768Z,1001.67
2019-03-10T23:16:56.791Z,1001.77
2019-03-10T23:17:56.747Z,1001.76
2019-03-10T23:18:56.738Z,1001.75
2019-03-10T23:19:56.743Z,1001.75
2019-03-10T23:20:56.744Z,1001.71
2019-03-10T23:21:56.704Z,1001.81
2019-03-10T23:22:56.703Z,1001.87
2019-03-10T23:23:56.695Z,1001.78
2019-03-10T23:24:56.697Z,1001.81
2019-03-10T23:25:56.691Z,1001.89
2019-03-10T23:26:56.690Z,1001.96
2019-03-10T23:27:56.645Z,1001.94
2019-03-10T23:28:56.630Z,1002.08
2019-03-10T23:29:56.622Z,1001.95
2019-03-10T23:30:56.616Z,1001.96
2019-03-10T23:31:56.642Z,1001.93
2019-03-10T23:32:56.616Z,1002.00
2019-03-10T23:33:56.617Z,1001.99
2019-03-10T23:34:56.579Z,1002.10
2019-03-10T23:35:56.549Z,1002.06
2019-03-10T23:36:56.545Z,1002.06
2019-03-10T23:37:56.571Z,1002.15
2019-03-10T23:38:56.532Z,1002.11
2019-03-10T23:39:56.506Z,1002.12
2019-03-10T23:40:56.562Z,1002.17
2019-03-10T23:41:56.514Z,1002.16
2019-03-10T23:42:56.516Z,1002.17
2019-03-10T23:43:56.466Z,1002.31
2019-03-10T23:44:56.460Z,1002.25
2019-03-10T23:45:56.492Z,1002.33
2019-03-10T23:46:56.444Z,1002.28
2019-03-10T23:47:56.422Z,1002.29
2019-03-10T23:48:56.419Z,1002.25
2019-03-10T23:49:56.406Z,1002.32
2019-03-10T23:50:56.428Z,1002.38
2019-03-10T23:51:56.399Z,1002.38
2019-03-10T23:52:56.416Z,1002.33
2019-03-10T23:53:56.370Z,1002.33
2019-03-10T23:54:56.375Z,1002.47
2019-03-10T23:55:56.335Z,1002.50
2019-03-10T23:56:56.342Z,1002.45
2019-03-10T23:57:56.334Z,1002.45
2019-03-10T23:58:56.380Z,1002.46
2019-03-10T23:59:56.336Z,1002.44
